Time;durP1;ratioP1;P1;durP2;ratioP2;P2;SDS_P1;SDS_P2;PMS_P1;PMS_P2;Temp;Humidity;BMP_temperature;BMP_pressure;BME280_temperature;BME280_humidity;BME280_pressure;Samples;Min_cycle;Max_cycle;Signal;HPM_P1;HPM_P2
2024/04/18 00:01:50;;;;;;;10.52;7.63;;;2.10;99.90;;;6.81;100.00;100387.06;5388610;26;20073;-80
2024/04/18 00:04:16;;;;;;;11.55;6.97;;;2.10;99.90;;;7.00;100.00;100424.31;5359224;26;20019;-79
2024/04/18 00:06:43;;;;;;;11.02;7.60;;;2.10;99.90;;;7.05;100.00;100438.13;5356992;26;19996;-80
2024/04/18 00:09:10;;;;;;;11.98;7.10;;;1.90;99.90;;;7.01;100.00;100442.28;5386273;26;20008;-79
2024/04/18 00:11:37;;;;;;;10.82;6.63;;;1.90;99.90;;;6.72;100.00;100400.78;5358891;26;20514;-79
2024/04/18 00:14:11;;;;;;;10.55;6.85;;;1.90;99.90;;;6.67;100.00;100414.09;5357631;26;20001;-79
2024/04/18 00:16:37;;;;;;;9.35;6.30;;;1.80;99.90;;;6.47;100.00;100412.03;5357001;26;20001;-79
2024/04/18 00:19:19;;;;;;;10.52;7.10;;;1.80;99.90;;;6.52;100.00;100435.88;5360776;26;19998;-80
2024/04/18 00:22:03;;;;;;;10.70;6.95;;;1.70;99.90;;;6.42;100.00;100419.94;5352094;26;20004;-79
2024/04/18 00:24:31;;;;;;;14.60;6.82;;;1.70;99.90;;;6.64;100.00;100446.16;5357904;26;20010;-80
2024/04/18 00:26:58;;;;;;;10.02;6.47;;;1.60;99.90;;;6.21;100.00;100417.22;5358494;26;20012;-79
2024/04/18 00:29:38;;;;;;;11.70;7.28;;;1.60;99.90;;;6.17;100.00;100449.25;5354149;26;20001;-81
2024/04/18 00:32:15;;;;;;;11.70;7.70;;;1.60;99.90;;;6.04;100.00;100447.25;5358540;26;19997;-79
2024/04/18 00:35:00;;;;;;;12.50;7.82;;;1.70;99.90;;;6.33;100.00;100449.03;5353819;26;20422;-80
2024/04/18 00:37:36;;;;;;;11.13;7.30;;;1.70;99.90;;;5.92;100.00;100416.28;5340411;26;20000;-80
2024/04/18 00:40:03;;;;;;;11.60;8.65;;;1.80;99.90;;;6.31;100.00;100456.50;5354363;26;20001;-80
2024/04/18 00:42:38;;;;;;;16.40;10.00;;;1.90;99.90;;;6.22;100.00;100427.03;5410608;26;20011;-79
2024/04/18 00:45:05;;;;;;;15.30;10.40;;;2.10;99.90;;;6.26;100.00;100447.28;5354187;26;20015;-80
2024/04/18 00:47:48;;;;;;;14.37;9.63;;;2.20;99.90;;;6.43;100.00;100462.25;5357984;26;19996;-78
2024/04/18 00:50:18;;;;;;;17.02;11.55;;;2.20;99.90;;;6.18;100.00;100418.44;5348486;26;20071;-80
2024/04/18 00:52:46;;;;;;;21.55;12.85;;;2.30;99.90;;;6.31;100.00;100425.84;5353090;26;20353;-79
2024/04/18 00:55:29;;;;;;;19.55;11.90;;;2.30;99.90;;;6.73;100.00;100447.69;5358450;26;20001;-79
2024/04/18 00:58:12;;;;;;;18.88;11.93;;;2.20;99.90;;;6.80;100.00;100461.31;5356532;26;20012;-80
2024/04/18 01:00:45;;;;;;;19.27;11.63;;;2.00;99.90;;;6.84;100.00;100459.88;5355218;26;20095;-80
2024/04/18 01:03:31;;;;;;;18.85;11.57;;;1.80;99.90;;;6.53;100.00;100425.84;5359349;26;20070;-79
2024/04/18 01:06:09;;;;;;;15.15;10.18;;;1.70;99.90;;;6.77;100.00;100462.56;5360963;26;20009;-80
2024/04/18 01:08:57;;;;;;;18.55;10.70;;;1.70;99.90;;;6.56;100.00;100428.16;5356349;26;20004;-80
2024/04/18 01:11:32;;;;;;;18.35;11.10;;;1.80;99.90;;;6.94;100.00;100473.94;5383530;26;20001;-79
2024/04/18 01:14:10;;;;;;;17.73;10.70;;;1.90;99.90;;;7.09;100.00;100473.00;5356442;26;20004;-80
2024/04/18 01:17:10;;;;;;;20.80;11.55;;;2.00;99.90;;;6.54;100.00;100473.59;5350242;26;20480;-79
2024/04/18 01:19:37;;;;;;;;;;;2.20;99.90;;;7.09;100.00;100481.13;5344356;26;20000;-79
2024/04/18 01:22:04;;;;;;;15.35;10.38;;;2.30;99.90;;;6.96;100.00;100474.59;5354828;26;19933;-80
2024/04/18 01:24:31;;;;;;;17.77;11.15;;;2.40;99.90;;;6.83;100.00;100480.75;5383074;26;20012;-80
2024/04/18 01:26:57;;;;;;;18.98;12.18;;;2.50;99.90;;;6.89;100.00;100460.13;5363198;26;20004;-80
2024/04/18 01:29:43;;;;;;;19.27;12.15;;;2.60;99.90;;;7.11;100.00;100495.31;5379893;26;20479;-79
2024/04/18 01:32:31;;;;;;;22.67;12.93;;;2.70;99.90;;;6.90;100.00;100488.94;5350248;26;20075;-79
2024/04/18 01:34:58;;;;;;;22.77;13.00;;;2.80;99.90;;;6.70;100.00;100477.91;5354029;26;20107;-79
2024/04/18 01:37:46;;;;;;;24.48;12.23;;;2.90;99.90;;;6.86;100.00;100483.06;5349087;26;19996;-79
2024/04/18 01:40:15;;;;;;;21.42;12.02;;;2.90;99.90;;;6.62;100.00;100481.59;5346964;26;20357;-80
2024/04/18 01:42:43;;;;;;;18.40;11.73;;;3.00;99.90;;;6.67;100.00;100452.03;5354331;26;20014;-79
2024/04/18 01:45:25;;;;;;;29.75;11.65;;;3.00;99.90;;;6.98;100.00;100491.50;5355724;26;20451;-79
2024/04/18 01:48:12;;;;;;;20.08;11.50;;;3.00;99.90;;;6.90;100.00;100457.22;5350091;26;20114;-79
2024/04/18 01:50:58;;;;;;;21.20;10.50;;;3.10;99.90;;;6.88;100.00;100490.97;5353723;26;20015;-79
2024/04/18 01:53:36;;;;;;;25.15;11.52;;;3.10;99.90;;;6.49;100.00;100466.03;5361509;26;20441;-80
2024/04/18 01:56:17;;;;;;;17.73;11.32;;;3.20;99.90;;;6.50;100.00;100456.91;5354271;26;20000;-79
2024/04/18 01:58:46;;;;;;;16.75;10.13;;;3.10;99.90;;;6.64;100.00;100474.13;5358261;26;20391;-80
2024/04/18 02:01:13;;;;;;;16.83;9.77;;;3.10;99.90;;;6.75;100.00;100487.13;5354080;26;20012;-79
2024/04/18 02:03:41;;;;;;;20.50;10.45;;;3.10;99.90;;;6.51;100.00;100458.56;5378749;26;20383;-79
2024/04/18 02:06:13;;;;;;;19.88;9.85;;;3.10;99.90;;;6.60;100.00;100486.34;5358728;26;20077;-79
2024/04/18 02:08:46;;;;;;;21.80;10.73;;;3.00;99.90;;;6.79;100.00;100481.31;5357434;26;20020;-80
2024/04/18 02:11:31;;;;;;;24.33;12.27;;;3.00;99.90;;;6.45;100.00;100499.97;5402711;26;20017;-78
2024/04/18 02:14:14;;;;;;;23.40;12.93;;;3.10;99.90;;;6.52;100.00;100486.50;5355682;26;19997;-79
2024/04/18 02:16:41;;;;;;;25.65;13.50;;;3.20;99.90;;;6.43;100.00;100502.91;5345317;26;20373;-79
2024/04/18 02:19:25;;;;;;;22.55;13.85;;;3.20;99.90;;;6.16;100.00;100456.56;5349587;26;20020;-79
2024/04/18 02:21:58;;;;;;;26.98;14.35;;;3.40;99.90;;;6.44;100.00;100510.00;5345093;26;20002;-79
2024/04/18 02:24:57;;;;;;;24.23;13.77;;;3.40;99.90;;;6.98;100.00;100513.19;5353195;26;20019;-79
2024/04/18 02:27:25;;;;;;;28.90;15.05;;;3.40;99.90;;;6.66;100.00;100518.13;5351497;26;20002;-78
2024/04/18 02:29:51;;;;;;;23.30;14.90;;;3.40;99.90;;;6.59;100.00;100507.22;5384507;26;20012;-79
2024/04/18 02:32:38;;;;;;;26.40;15.13;;;3.40;99.90;;;6.36;100.00;100484.91;5357565;26;20001;-78
2024/04/18 02:35:15;;;;;;;23.35;14.77;;;3.40;99.90;;;6.25;100.00;100476.25;5359022;26;20001;-79
2024/04/18 02:37:58;;;;;;;27.88;14.43;;;3.50;99.90;;;6.50;100.00;100512.97;5353297;26;19997;-80
2024/04/18 02:40:26;;;;;;;23.60;15.13;;;3.50;99.90;;;6.30;100.00;100495.47;5362639;26;20001;-80
2024/04/18 02:43:01;;;;;;;24.65;14.00;;;3.60;99.90;;;6.21;100.00;100484.94;5376319;26;19997;-79
2024/04/18 02:45:35;;;;;;;22.40;13.75;;;3.70;99.90;;;6.35;100.00;100488.63;5352529;26;20459;-78
2024/04/18 02:48:20;;;;;;;23.48;12.95;;;3.70;99.90;;;6.19;100.00;100507.66;5359172;26;20019;-79
2024/04/18 02:50:48;;;;;;;20.73;13.07;;;3.80;99.90;;;6.56;100.00;100523.03;5382553;26;20004;-78
2024/04/18 02:53:17;;;;;;;20.17;11.63;;;3.80;99.90;;;6.71;100.00;100533.81;5378172;26;20011;-79
2024/04/18 02:56:02;;;;;;;20.40;12.60;;;3.90;99.90;;;6.74;100.00;100528.84;5340365;26;20051;-79
2024/04/18 02:58:32;;;;;;;22.17;13.68;;;3.90;99.90;;;6.64;100.00;100522.06;5331847;26;19998;-79
2024/04/18 03:01:17;;;;;;;21.90;12.75;;;4.00;99.90;;;6.58;100.00;100485.72;5324835;26;20038;-80
2024/04/18 03:03:44;;;;;;;21.58;11.25;;;4.00;99.90;;;6.47;100.00;100511.47;5335397;26;20033;-78
2024/04/18 03:06:11;;;;;;;21.65;13.23;;;4.00;99.90;;;6.66;100.00;100493.75;5347526;26;20001;-79
2024/04/18 03:08:43;;;;;;;22.40;14.18;;;4.00;99.90;;;6.47;100.00;100525.88;5358345;26;20465;-78
2024/04/18 03:11:16;;;;;;;20.10;13.07;;;4.00;99.90;;;6.98;100.00;100526.75;5321330;26;20009;-79
2024/04/18 03:14:03;;;;;;;24.77;13.43;;;4.00;99.90;;;6.69;100.00;100506.91;5328638;26;20024;-78
2024/04/18 03:16:32;;;;;;;22.05;12.40;;;4.10;99.90;;;6.97;100.00;100516.94;5324372;26;20001;-80
2024/04/18 03:19:19;;;;;;;20.38;11.60;;;4.10;99.90;;;6.96;100.00;100509.00;5361298;26;20063;-77
2024/04/18 03:21:52;;;;;;;16.88;11.02;;;4.20;99.90;;;7.74;100.00;100546.06;5325561;26;20002;-78
2024/04/18 03:24:23;;;;;;;20.60;12.57;;;4.10;99.90;;;6.87;100.00;100505.56;5340594;26;20048;-78
2024/04/18 03:26:52;;;;;;;22.60;11.50;;;4.20;99.90;;;6.72;100.00;100492.94;5326002;26;19997;-79
2024/04/18 03:29:19;;;;;;;18.98;11.98;;;4.20;99.90;;;7.21;100.00;100528.41;5319608;26;20450;-79
2024/04/18 03:31:59;;;;;;;18.65;11.48;;;4.10;99.90;;;7.05;100.00;100529.53;5325516;26;20452;-78
2024/04/18 03:34:45;;;;;;;17.08;10.40;;;4.20;99.90;;;7.42;100.00;100551.91;5322134;26;20071;-78
2024/04/18 03:37:13;;;;;;;18.80;11.47;;;4.20;99.90;;;7.89;100.00;100552.19;5330629;26;20018;-79
2024/04/18 03:39:40;;;;;;;15.90;9.85;;;4.10;99.90;;;6.98;100.00;100505.06;5328765;26;20724;-78
2024/04/18 03:42:07;;;;;;;14.35;9.10;;;4.20;99.90;;;7.02;100.00;100525.31;5322037;26;20012;-80
2024/04/18 03:44:56;;;;;;;15.77;10.23;;;4.20;99.90;;;6.62;100.00;100504.13;5324602;26;20002;-80
2024/04/18 03:47:23;;;;;;;15.02;9.00;;;4.30;99.90;;;7.10;100.00;100556.91;5353485;26;19997;-80
2024/04/18 03:50:09;;;;;;;14.07;8.07;;;4.30;99.90;;;7.03;100.00;100564.97;5346346;26;20020;-78
2024/04/18 03:52:39;;;;;;;12.80;8.20;;;4.30;99.90;;;6.99;100.00;100554.69;5398712;26;20029;-78
2024/04/18 03:55:24;;;;;;;13.45;8.30;;;4.30;99.90;;;7.14;100.00;100568.19;5338902;26;20071;-79
2024/04/18 03:57:52;;;;;;;12.00;8.18;;;4.30;99.90;;;7.14;100.00;100584.47;5343682;26;20012;-79
2024/04/18 04:00:48;;;;;;;14.75;8.93;;;4.30;99.90;;;6.41;100.00;100537.50;5371893;26;20344;-79
2024/04/18 04:03:16;;;;;;;13.68;8.60;;;4.20;99.90;;;7.00;100.00;100540.97;5325845;26;20001;-79
2024/04/18 04:05:42;;;;;;;14.95;8.52;;;4.20;99.90;;;6.95;100.00;100524.44;5339699;26;20400;-80
2024/04/18 04:08:09;;;;;;;14.90;10.30;;;4.20;99.90;;;6.49;100.00;100544.63;5316266;26;20009;-79
2024/04/18 04:10:42;;;;;;;15.38;9.82;;;4.30;99.90;;;7.07;100.00;100559.16;5326933;26;20007;-79
2024/04/18 04:13:09;;;;;;;19.15;9.82;;;4.30;99.90;;;7.62;100.00;100587.34;5342555;26;20444;-79
2024/04/18 04:15:47;;;;;;;16.70;10.73;;;4.20;99.90;;;7.61;100.00;100591.09;5364085;26;20445;-78
2024/04/18 04:18:33;;;;;;;15.38;11.20;;;4.20;99.90;;;6.92;100.00;100535.69;5338259;26;20012;-78
2024/04/18 04:21:22;;;;;;;15.85;11.52;;;4.00;99.90;;;7.34;100.00;100585.47;5332261;26;20011;-78
2024/04/18 04:23:48;;;;;;;18.60;12.10;;;4.00;99.90;;;7.06;100.00;100563.75;5341317;26;19996;-78
2024/04/18 04:26:15;;;;;;;22.95;11.95;;;3.90;99.90;;;7.04;100.00;100576.69;5326145;26;20025;-79
2024/04/18 04:28:41;;;;;;;19.67;13.68;;;4.00;99.90;;;6.98;100.00;100594.56;5354457;26;20001;-77
2024/04/18 04:31:09;;;;;;;20.08;13.13;;;3.80;99.90;;;6.69;100.00;100585.53;5334122;26;20020;-78
2024/04/18 04:33:35;;;;;;;16.37;11.27;;;3.90;99.90;;;6.73;100.00;100586.81;5327514;26;20049;-78
2024/04/18 04:36:02;;;;;;;17.77;11.45;;;3.90;99.90;;;6.70;100.00;100613.47;5386215;26;20016;-77
2024/04/18 04:38:29;;;;;;;19.20;10.77;;;4.00;99.90;;;6.74;100.00;100583.06;5356961;26;20074;-77
2024/04/18 04:40:57;;;;;;;17.27;11.10;;;4.00;99.90;;;6.97;100.00;100609.16;5336516;26;19997;-77
2024/04/18 04:43:24;;;;;;;16.92;11.25;;;4.10;99.90;;;6.54;100.00;100577.44;5351768;26;20047;-78
2024/04/18 04:45:55;;;;;;;18.10;10.85;;;4.00;99.90;;;6.94;100.00;100639.41;5332701;26;20013;-80
2024/04/18 04:48:36;;;;;;;16.48;10.93;;;4.10;99.90;;;6.93;100.00;100591.59;5332758;26;20001;-79
2024/04/18 04:51:11;;;;;;;16.38;11.13;;;4.10;99.90;;;7.53;100.00;100617.53;5379319;26;20002;-78
2024/04/18 04:53:38;;;;;;;18.67;12.07;;;4.10;99.90;;;7.07;100.00;100637.84;5313815;26;20014;-80
2024/04/18 04:56:04;;;;;;;18.20;11.20;;;4.10;99.90;;;6.93;100.00;100588.91;5340903;26;20017;-80
2024/04/18 04:58:30;;;;;;;19.15;10.98;;;4.20;99.90;;;7.18;100.00;100659.03;5361405;26;20009;-76
2024/04/18 05:00:57;;;;;;;16.50;10.88;;;4.20;99.90;;;7.44;100.00;100641.31;5364884;26;20433;-78
2024/04/18 05:03:36;;;;;;;16.80;11.25;;;4.20;99.90;;;7.06;100.00;100618.03;5348783;26;19997;-79
2024/04/18 05:06:21;;;;;;;20.15;10.73;;;4.20;99.90;;;7.03;100.00;100607.56;5336049;26;20011;-79
2024/04/18 05:09:08;;;;;;;16.75;10.43;;;4.30;99.90;;;7.27;100.00;100657.84;5369781;26;20016;-77
2024/04/18 05:11:34;;;;;;;18.90;10.95;;;4.40;99.90;;;7.47;100.00;100620.03;5330092;26;20013;-77
2024/04/18 05:14:00;;;;;;;20.92;12.57;;;4.40;99.90;;;7.50;100.00;100640.53;5373112;26;19997;-77
2024/04/18 05:16:45;;;;;;;19.00;11.65;;;4.40;99.90;;;7.65;100.00;100667.56;5327250;26;20024;-78
2024/04/18 05:19:11;;;;;;;20.45;11.63;;;4.50;99.90;;;7.37;100.00;100630.38;5338214;26;20017;-78
2024/04/18 05:21:37;;;;;;;19.58;11.90;;;4.50;99.90;;;8.13;100.00;100680.44;5350989;26;20029;-76
2024/04/18 05:24:22;;;;;;;24.00;11.43;;;4.60;99.90;;;8.41;100.00;100679.53;5334033;26;20027;-77
2024/04/18 05:26:49;;;;;;;19.98;11.18;;;4.70;99.90;;;8.36;100.00;100684.75;5356291;26;20005;-76
2024/04/18 05:32:02;;;;;;;24.38;11.07;;;4.80;99.90;;;7.71;100.00;100660.53;5324984;26;20009;-77
2024/04/18 05:34:30;;;;;;;18.00;10.20;;;4.80;99.90;;;7.86;100.00;100703.88;5334154;26;20049;-82
2024/04/18 05:36:58;;;;;;;17.45;11.05;;;4.80;99.90;;;7.90;100.00;100703.25;5310649;26;20454;-83
2024/04/18 05:39:25;;;;;;;19.25;10.75;;;4.80;99.90;;;7.86;100.00;100693.84;5343038;26;20008;-82
2024/04/18 05:41:53;;;;;;;16.52;9.93;;;4.80;99.90;;;7.76;100.00;100690.63;5387210;26;20002;-82
2024/04/18 05:44:39;;;;;;;15.32;9.45;;;4.80;99.90;;;8.13;100.00;100704.88;5327482;26;20010;-81
2024/04/18 05:47:06;;;;;;;17.65;10.00;;;4.90;99.90;;;8.12;100.00;100702.38;5366925;26;20008;-81
2024/04/18 05:49:32;;;;;;;15.07;9.82;;;5.00;99.90;;;7.88;100.00;100689.03;5370956;26;20077;-82
2024/04/18 05:51:59;;;;;;;14.00;9.35;;;5.00;99.90;;;7.58;100.00;100681.09;5341534;26;20448;-82
2024/04/18 05:54:31;;;;;;;14.40;8.95;;;5.10;99.90;;;7.80;100.00;100721.78;5341843;26;20013;-82
2024/04/18 05:57:05;;;;;;;12.93;9.02;;;5.10;99.90;;;8.09;100.00;100705.47;5337452;26;20006;-84
2024/04/18 05:59:54;;;;;;;12.35;8.52;;;5.20;99.90;;;8.10;100.00;100704.47;5313181;26;20002;-78
2024/04/18 06:02:21;;;;;;;12.88;8.48;;;5.30;99.90;;;7.76;100.00;100677.06;5323276;26;19998;-79
2024/04/18 06:04:48;;;;;;;14.30;8.95;;;5.20;99.90;;;7.86;100.00;100676.72;5323339;26;20013;-80
2024/04/18 06:07:33;;;;;;;15.40;8.85;;;5.20;99.90;;;8.07;100.00;100730.16;5335424;26;20079;-79
2024/04/18 06:10:00;;;;;;;13.53;8.33;;;5.20;99.90;;;8.13;100.00;100687.75;5338423;26;20013;-80
2024/04/18 06:12:27;;;;;;;15.25;9.38;;;5.30;99.90;;;8.17;100.00;100744.22;5336627;26;20255;-79
2024/04/18 06:14:54;;;;;;;13.93;9.00;;;5.50;99.90;;;8.37;100.00;100740.78;5375956;26;20016;-81
2024/04/18 06:17:20;;;;;;;12.52;8.45;;;5.60;99.90;;;8.34;100.00;100703.13;5350619;26;20008;-82
2024/04/18 06:19:51;;;;;;;11.45;8.50;;;5.70;99.90;;;8.78;100.00;100741.88;5351466;26;20015;-82
2024/04/18 06:22:30;;;;;;;11.27;8.20;;;5.80;99.90;;;8.72;100.00;100705.44;5323585;26;20294;-82
2024/04/18 06:25:17;;;;;;;11.93;8.70;;;6.00;99.90;;;9.07;100.00;100759.78;5338225;26;20037;-80
2024/04/18 06:27:44;;;;;;;12.07;7.93;;;6.10;99.90;;;8.76;100.00;100706.72;5358916;26;20048;-81
2024/04/18 06:30:11;;;;;;;11.40;7.63;;;6.20;99.90;;;9.51;100.00;100754.00;5360315;26;19997;-80
2024/04/18 06:32:39;;;;;;;11.38;7.80;;;6.30;99.90;;;9.65;98.06;100768.47;5327442;26;20281;-80
2024/04/18 06:35:07;;;;;;;12.43;7.13;;;6.60;99.90;;;9.19;99.26;100719.19;5316751;26;20016;-83
2024/04/18 06:37:34;;;;;;;11.23;7.70;;;6.50;99.90;;;9.58;98.38;100735.81;5344643;26;20236;-83
2024/04/18 06:40:01;;;;;;;8.60;6.70;;;6.50;99.90;;;9.23;98.47;100774.06;5346407;26;20338;-82
2024/04/18 06:42:30;;;;;;;14.15;8.45;;;6.40;99.90;;;9.52;100.00;100766.56;5343740;26;20005;-82
2024/04/18 06:44:57;;;;;;;;;;;6.50;99.90;;;9.61;97.73;100721.78;5353052;26;20012;-81
2024/04/18 06:47:24;;;;;;;10.07;6.88;;;6.70;99.90;;;9.29;97.60;100743.31;5352056;26;19927;-82
2024/04/18 06:50:09;;;;;;;12.80;7.65;;;6.70;99.90;;;9.15;97.29;100739.72;5364939;26;20009;-82
2024/04/18 06:52:35;;;;;;;11.18;6.80;;;6.70;99.90;;;11.19;91.79;100786.50;5367322;26;20051;-84
2024/04/18 06:55:03;;;;;;;12.85;7.38;;;7.00;99.90;;;10.08;86.87;100738.09;5326278;26;20009;-82
2024/04/18 06:57:43;;;;;;;13.43;6.78;;;7.00;99.90;;;10.74;88.99;100750.97;5362725;26;20001;-83
2024/04/18 07:00:20;;;;;;;8.02;6.25;;;7.00;99.90;;;10.13;86.12;100762.00;5372619;26;20001;-80
2024/04/18 07:02:47;;;;;;;8.43;6.25;;;7.10;99.90;;;10.78;84.57;100780.34;5335017;26;20049;-80
2024/04/18 07:05:33;;;;;;;10.13;6.35;;;7.40;99.90;;;11.80;79.64;100770.59;5332078;26;20012;-83
2024/04/18 07:08:19;;;;;;;9.85;5.93;;;7.60;99.90;;;12.55;72.98;100778.97;5374035;26;20078;-83
2024/04/18 07:10:45;;;;;;;10.90;6.25;;;8.00;99.90;;;12.20;72.65;100777.63;5346657;26;20080;-82
2024/04/18 07:13:31;;;;;;;11.88;7.93;;;8.30;99.90;;;11.93;73.62;100769.63;5333770;26;20073;-81
2024/04/18 07:16:01;;;;;;;13.43;7.82;;;8.20;99.90;;;12.10;71.93;100738.19;5365682;26;20036;-80
2024/04/18 07:18:45;;;;;;;14.40;7.53;;;8.30;99.90;;;11.89;70.11;100779.31;5344569;26;20466;-83
2024/04/18 07:21:14;;;;;;;21.98;12.15;;;8.40;99.90;;;12.56;71.25;100771.59;5335401;26;20140;-79
2024/04/18 07:23:41;;;;;;;24.85;10.77;;;8.40;99.90;;;10.84;75.26;100794.19;5334252;26;20071;-83
2024/04/18 07:26:07;;;;;;;12.97;7.27;;;8.10;99.90;;;11.12;77.36;100784.84;5351150;26;20002;-81
2024/04/18 07:28:34;;;;;;;13.43;9.20;;;7.90;99.90;;;10.73;78.08;100754.75;5345837;26;20010;-81
2024/04/18 07:31:00;;;;;;;18.85;8.13;;;7.60;99.90;;;12.20;74.22;100790.47;5342758;26;20008;-80
2024/04/18 07:33:27;;;;;;;16.20;7.28;;;7.80;99.90;;;12.10;70.45;100771.81;5366173;26;20349;-81
2024/04/18 07:35:59;;;;;;;18.50;7.47;;;8.00;99.90;;;11.56;71.87;100804.16;5333301;26;20015;-81
2024/04/18 07:38:26;;;;;;;22.50;7.07;;;8.10;99.90;;;10.22;79.23;100779.00;5331226;26;20078;-78
2024/04/18 07:40:54;;;;;;;19.77;7.70;;;7.80;99.90;;;10.55;81.20;100785.47;5330486;26;20072;-80
2024/04/18 07:43:21;;;;;;;18.60;8.23;;;7.50;99.90;;;10.89;79.46;100769.84;5373050;26;20070;-78
2024/04/18 07:45:48;;;;;;;18.30;7.65;;;7.60;99.90;;;12.40;73.37;100794.91;5338229;26;20009;-81
2024/04/18 07:48:15;;;;;;;18.13;8.00;;;7.80;99.90;;;12.59;69.48;100804.81;5377296;26;19996;-81
2024/04/18 07:50:44;;;;;;;16.55;8.07;;;8.20;99.90;;;12.35;66.17;100776.44;5338615;26;20077;-80
2024/04/18 07:53:10;;;;;;;12.15;7.05;;;8.40;99.90;;;13.17;64.52;100786.25;5328550;26;19997;-79
2024/04/18 07:55:40;;;;;;;15.50;10.25;;;8.70;99.90;;;13.43;62.32;100788.88;5356948;26;20075;-80
2024/04/18 07:58:07;;;;;;;11.20;6.18;;;9.00;99.90;;;11.70;65.22;100769.41;5361471;26;20012;-79
2024/04/18 08:00:35;;;;;;;8.75;4.90;;;9.00;99.90;;;11.25;66.08;100787.53;5301564;26;20069;-78
2024/04/18 08:03:02;;;;;;;10.57;5.60;;;8.60;99.90;;;11.08;67.16;100806.28;5353778;26;20001;-80
2024/04/18 08:05:30;;;;;;;11.85;5.60;;;8.40;99.90;;;11.57;65.44;100784.00;5324973;26;20058;-79
2024/04/18 08:07:58;;;;;;;10.95;5.80;;;8.30;99.90;;;12.59;61.00;100782.91;5327477;26;20412;-81
2024/04/18 08:10:25;;;;;;;13.18;7.65;;;8.60;99.90;;;13.34;59.20;100771.91;5337211;26;20048;-81
2024/04/18 08:12:52;;;;;;;9.57;5.20;;;9.00;99.90;;;13.75;56.81;100777.66;5348026;26;20005;-82
2024/04/18 08:15:19;;;;;;;9.30;4.70;;;9.20;99.90;;;12.82;58.18;100775.09;5355381;26;20029;-82
2024/04/18 08:17:46;;;;;;;10.38;4.72;;;9.50;99.90;;;11.77;60.27;100775.66;5378899;26;20340;-79
2024/04/18 08:20:14;;;;;;;7.05;4.45;;;9.40;99.90;;;12.83;60.60;100812.38;5330246;26;20014;-82
2024/04/18 08:22:42;;;;;;;6.88;4.93;;;9.30;99.90;;;13.02;58.01;100800.34;5357636;26;20016;-79
2024/04/18 08:25:08;;;;;;;7.32;4.35;;;9.40;99.90;;;13.78;56.75;100799.97;5391590;26;20072;-81
2024/04/18 08:27:35;;;;;;;7.35;3.53;;;9.50;99.90;;;13.42;54.16;100762.50;5374710;26;20470;-79
2024/04/18 08:30:04;;;;;;;6.88;4.35;;;9.90;99.90;;;13.00;58.73;100802.47;5378455;26;20456;-83
2024/04/18 08:32:31;;;;;;;6.93;3.50;;;9.70;99.90;;;12.49;55.69;100747.03;5370773;26;20047;-79
2024/04/18 08:34:57;;;;;;;7.90;2.90;;;9.80;99.90;;;11.84;55.34;100749.09;5341377;26;20001;-81
2024/04/18 08:37:24;;;;;;;7.28;2.90;;;9.50;99.90;;;11.79;56.52;100757.94;5341102;26;20013;-81
2024/04/18 08:39:50;;;;;;;5.43;2.50;;;9.40;99.90;;;12.31;53.96;100764.28;5315043;26;19996;-85
2024/04/18 08:42:23;;;;;;;10.85;2.55;;;9.80;99.90;;;12.02;54.50;100777.59;5339894;26;20009;-81
2024/04/18 08:44:55;;;;;;;5.85;2.90;;;9.60;99.90;;;12.40;55.95;100783.97;5369442;26;20033;-83
2024/04/18 08:47:26;;;;;;;4.90;3.00;;;9.70;99.90;;;12.70;53.94;100784.06;5402802;26;20008;-84
2024/04/18 08:49:55;;;;;;;5.70;2.38;;;9.70;99.90;;;12.98;51.90;100765.44;5347819;26;20007;-83
2024/04/18 08:52:25;;;;;;;6.88;2.20;;;9.80;99.90;;;12.39;51.26;100746.75;5350007;26;20008;-86
2024/04/18 08:54:51;;;;;;;4.55;2.00;;;9.90;99.90;;;12.58;49.79;100733.91;5374503;26;20437;-82
2024/04/18 08:57:21;;;;;;;5.20;2.60;;;9.90;99.90;;;12.94;49.78;100707.53;5380615;26;20080;-81
2024/04/18 09:00:00;;;;;;;5.03;2.22;;;10.00;99.90;;;12.26;52.12;100755.91;5378971;26;20073;-83
2024/04/18 09:02:26;;;;;;;5.82;2.50;;;9.80;99.90;;;12.43;52.68;100745.22;5302108;26;20341;-82
2024/04/18 09:04:54;;;;;;;4.80;2.60;;;9.90;99.90;;;13.70;49.47;100719.94;5338309;26;20019;-82
2024/04/18 09:07:21;;;;;;;2.58;1.40;;;10.20;99.90;;;12.83;46.48;100654.41;5338248;26;19997;-83
2024/04/18 09:09:50;;;;;;;3.88;1.30;;;10.60;99.90;;;12.66;45.49;100654.22;5403568;26;20459;-85
2024/04/18 09:12:17;;;;;;;4.03;1.35;;;10.50;99.80;;;12.69;44.43;100628.28;5328175;26;19997;-81
2024/04/18 09:14:43;;;;;;;3.90;1.42;;;10.40;98.50;;;13.38;45.55;100704.59;5345084;26;20012;-82
2024/04/18 09:17:14;;;;;;;3.22;1.63;;;10.60;99.90;;;13.84;44.97;100654.75;5335458;26;20324;-78
2024/04/18 09:19:40;;;;;;;3.08;2.08;;;;;;;14.52;43.85;100690.84;5333917;26;20009;-81
2024/04/18 09:22:06;;;;;;;3.28;1.60;;;11.00;99.90;;;13.73;44.69;100692.06;5324259;26;20006;-81
2024/04/18 09:24:33;;;;;;;2.50;1.38;;;11.20;99.10;;;14.03;46.83;100748.72;5336499;26;20003;-80
2024/04/18 09:26:59;;;;;;;3.22;1.92;;;11.50;99.90;;;13.65;47.06;100748.91;5334412;26;20013;-81
2024/04/18 09:29:26;;;;;;;5.72;2.10;;;11.10;99.90;;;12.93;49.09;100738.72;5325958;26;20527;-78
2024/04/18 09:31:59;;;;;;;5.72;2.15;;;10.70;99.90;;;13.30;49.59;100777.03;5329147;26;20001;-81
2024/04/18 09:34:26;;;;;;;3.83;1.85;;;10.50;99.90;;;13.79;47.19;100730.34;5358979;26;20009;-81
2024/04/18 09:36:55;;;;;;;4.10;2.15;;;10.50;99.90;;;14.52;45.87;100749.28;5355266;26;20108;-80
2024/04/18 09:39:26;;;;;;;4.60;1.80;;;10.60;99.90;;;14.70;42.79;100661.53;5327670;26;20337;-82
2024/04/18 09:42:05;;;;;;;3.65;1.90;;;11.30;98.80;;;15.49;42.82;100692.97;5315891;26;20018;-81
2024/04/18 09:44:33;;;;;;;;;;;11.70;98.30;;;14.46;42.12;100626.75;5350267;26;20017;-79
2024/04/18 09:47:01;;;;;;;4.80;1.60;;;11.90;97.30;;;14.65;43.83;100704.28;5327731;26;19940;-80
2024/04/18 09:49:27;;;;;;;8.00;1.52;;;12.00;98.20;;;13.78;43.96;100662.88;5316517;26;20012;-81
2024/04/18 09:51:56;;;;;;;2.63;1.42;;;11.70;96.60;;;14.21;43.45;100669.03;5313775;26;20366;-80
2024/04/18 09:54:22;;;;;;;3.33;1.45;;;11.60;96.70;;;14.07;42.43;100652.00;5329143;26;20008;-81
2024/04/18 09:56:52;;;;;;;2.97;1.15;;;11.40;95.10;;;15.20;41.30;100660.03;5333776;26;20049;-81
2024/04/18 09:59:20;;;;;;;6.55;2.13;;;11.70;96.20;;;13.11;45.54;100696.75;5338872;26;20009;-81
2024/04/18 10:01:48;;;;;;;4.45;1.92;;;11.20;99.00;;;12.86;48.51;100744.28;5332921;26;20020;-79
2024/04/18 10:04:15;;;;;;;5.78;2.15;;;10.50;99.90;;;14.37;46.37;100724.28;5342128;26;20441;-83
2024/04/18 10:06:45;;;;;;;5.93;2.47;;;;;;;15.41;42.90;100721.69;5338321;26;20471;-81
2024/04/18 10:09:16;;;;;;;2.95;1.70;;;;;;;15.55;41.42;100693.88;5363572;26;20016;-80
2024/04/18 10:11:43;;;;;;;3.60;1.67;;;;;;;17.30;38.82;100687.16;5339411;26;20033;-80
2024/04/18 10:14:11;;;;;;;3.17;1.20;;;;;;;17.97;33.93;100615.09;5359731;26;20418;-81
2024/04/18 10:16:48;;;;;;;6.97;1.80;;;;;;;15.31;37.65;100576.66;5340549;26;20542;-80
2024/04/18 10:19:28;;;;;;;2.78;1.70;;;;;;;14.08;42.65;100650.94;5341598;26;19997;-79
2024/04/18 10:22:00;;;;;;;4.85;1.90;;;10.80;99.90;;;13.47;44.76;100685.94;5341202;26;20401;-80
2024/04/18 10:24:34;;;;;;;4.30;1.40;;;11.50;92.30;;;12.83;43.83;100679.03;5341246;26;20341;-79
2024/04/18 10:27:15;;;;;;;3.70;1.63;;;10.70;92.00;;;14.15;41.48;100639.84;5398644;26;20007;-80
2024/04/18 10:29:59;;;;;;;3.88;1.70;;;11.30;91.40;;;13.04;41.02;100608.41;5367695;26;20121;-80
2024/04/18 10:32:31;;;;;;;4.18;1.45;;;;;;;15.98;39.43;100697.06;5339821;26;20005;-79
2024/04/18 10:35:02;;;;;;;4.10;1.75;;;;;;;17.68;36.46;100685.25;5363278;26;20002;-80
2024/04/18 10:37:28;;;;;;;3.00;1.50;;;;;;;16.86;36.11;100632.09;5350882;26;20049;-79
2024/04/18 10:39:57;;;;;;;3.60;1.75;;;;;;;18.32;36.65;100679.91;5342558;26;20012;-83